Terminal Aerodrome Forecast
Issued by NWS Paducah, KY

Home | Current Version | Previous Version | Text Only | Print | Product List | Glossary On
Versions: 1 2 3 4 5 6 7 8 9 10 11 12 13 14 15 16
023
FTUS43 KPAH 230520
TAFPAH
TAF
KPAH 230520Z 2306/2406 16008KT P6SM VCSH BKN040
     FM230900 19007KT 5SM SHRA VCTS OVC015CB
     FM231200 18008KT 3SM +SHRA OVC008
     FM232100 31010KT P6SM SCT025 OVC040=

USA.gov is the U.S. government's official web portal to all federal, state and local government web resources and services.